Terminal Aerodrome Forecast
Issued by NWS

Home | Current Version | Previous Version | Text Only | Print | Product List | Glossary On
Versions: 1 2 3 4 5 6 7 8 9 10 11 12 13 14 15 16 17 18 19 20 21 22 23 24 25 26 27 28
684
FTUS41 KBGM 042041 AAA
TAFELM
TAF AMD
KELM 042041Z 0421/0518 VRB05KT P6SM BKN040
      TEMPO 0421/0423 4SM -SHRA BR SCT025 OVC035
     FM042300 10003KT P6SM OVC025
     FM050200 VRB06KT P6SM OVC012
      TEMPO 0509/0513 2SM BR OVC005
     FM051500 03010KT P6SM BKN025=

USA.gov is the U.S. government's official web portal to all federal, state and local government web resources and services.